Time;durP1;ratioP1;P1;durP2;ratioP2;P2;SDS_P1;SDS_P2;PMS_P1;PMS_P2;Temp;Humidity;BMP_temperature;BMP_pressure;BME280_temperature;BME280_humidity;BME280_pressure;Samples;Min_cycle;Max_cycle;Signal;HPM_P1;HPM_P2
2022/08/08 00:00:10;;;;;;;;;;;16.20;97.00;;;;;;5101087;28;19917;-92
2022/08/08 00:02:40;;;;;;;;;;;16.20;97.20;;;;;;5100892;28;19920;-92
2022/08/08 00:05:09;;;;;;;;;;;16.20;97.50;;;;;;5100888;28;19913;-93
2022/08/08 00:07:37;;;;;;;;;;;16.20;97.60;;;;;;5100275;28;19908;-92
2022/08/08 00:10:06;;;;;;;;;;;16.10;97.80;;;;;;5100813;28;19909;-93
2022/08/08 00:12:37;;;;;;;;;;;16.10;98.10;;;;;;5100570;28;19913;-92
2022/08/08 00:15:09;;;;;;;;;;;16.10;98.40;;;;;;5100772;28;19944;-92
2022/08/08 00:17:42;;;;;;;;;;;16.10;98.70;;;;;;5100834;28;19908;-92
2022/08/08 00:20:10;;;;;;;;;;;16.10;98.60;;;;;;5100522;28;19927;-91
2022/08/08 00:22:41;;;;;;;;;;;16.00;98.90;;;;;;5100041;28;19912;-92
2022/08/08 00:25:10;;;;;;;;;;;15.80;99.00;;;;;;5100178;28;19935;-92
2022/08/08 00:27:37;;;;;;;;;;;15.80;99.30;;;;;;5100453;28;19943;-91
2022/08/08 00:30:06;;;;;;;;;;;15.70;99.60;;;;;;5100441;28;19909;-92
2022/08/08 00:32:36;;;;;;;;;;;15.70;99.90;;;;;;5099983;28;19913;-92
2022/08/08 00:35:23;;;;;;;;;;;15.70;99.90;;;;;;5100080;28;19933;-92
2022/08/08 00:38:04;;;;;;;;;;;15.60;99.90;;;;;;5100332;28;19955;-92
2022/08/08 00:40:48;;;;;;;;;;;15.60;99.90;;;;;;5098510;28;19939;-92
2022/08/08 00:43:35;;;;;;;;;;;15.60;99.90;;;;;;5099872;28;19932;-92
2022/08/08 00:46:12;;;;;;;;;;;15.60;99.90;;;;;;5093479;28;19917;-92
2022/08/08 00:48:55;;;;;;;;;;;15.50;99.90;;;;;;5100107;28;19920;-92
2022/08/08 00:51:40;;;;;;;;;;;15.50;99.90;;;;;;5100004;28;19940;-91
2022/08/08 00:54:22;;;;;;;;;;;15.50;99.90;;;;;;5098461;28;19909;-92
2022/08/08 00:57:02;;;;;;;;;;;15.40;99.90;;;;;;5099610;28;19968;-92
2022/08/08 00:59:48;;;;;;;;;;;15.40;99.90;;;;;;5099897;28;19991;-92
2022/08/08 01:02:33;;;;;;;;;;;15.30;99.90;;;;;;5099773;28;19915;-92
2022/08/08 01:05:17;;;;;;;;;;;15.30;99.90;;;;;;5092813;28;19921;-92
2022/08/08 01:07:56;;;;;;;;;;;15.20;99.90;;;;;;5099307;28;19939;-91
2022/08/08 01:10:40;;;;;;;;;;;15.20;99.90;;;;;;5099658;28;19909;-92
2022/08/08 01:13:20;;;;;;;;;;;15.10;99.90;;;;;;5099454;28;19908;-93
2022/08/08 01:15:58;;;;;;;;;;;15.10;99.90;;;;;;5099681;28;19919;-93
2022/08/08 01:18:50;;;;;;;;;;;15.00;99.90;;;;;;5099725;28;19908;-93
2022/08/08 01:21:40;;;;;;;;;;;15.00;99.90;;;;;;5099705;28;19908;-92
2022/08/08 01:24:26;;;;;;;;;;;14.90;99.90;;;;;;5099469;28;19912;-92
2022/08/08 01:27:02;;;;;;;;;;;14.90;99.90;;;;;;5099435;28;19935;-92
2022/08/08 01:29:38;;;;;;;;;;;14.80;99.90;;;;;;5099478;28;19913;-93
2022/08/08 01:32:35;;;;;;;;;;;14.80;99.90;;;;;;5099199;28;19912;-92
2022/08/08 01:35:20;;;;;;;;;;;14.70;99.90;;;;;;5098915;28;19924;-92
2022/08/08 01:38:17;;;;;;;;;;;14.70;99.90;;;;;;5099135;28;19980;-92
2022/08/08 01:40:48;;;;;;;;;;;14.60;99.90;;;;;;5099073;28;19913;-93
2022/08/08 01:43:21;;;;;;;;;;;14.60;99.90;;;;;;5098775;28;19977;-94
2022/08/08 01:45:55;;;;;;;;;;;14.60;99.90;;;;;;5098511;28;19913;-92
2022/08/08 01:48:29;;;;;;;;;;;14.50;99.90;;;;;;5098239;28;19908;-92
2022/08/08 01:51:10;;;;;;;;;;;14.60;99.90;;;;;;5103605;28;19908;-92
2022/08/08 01:53:46;;;;;;;;;;;14.50;99.90;;;;;;5103202;28;19947;-93
2022/08/08 01:56:19;;;;;;;;;;;14.40;99.90;;;;;;5105473;28;19912;-92
2022/08/08 01:58:49;;;;;;;;;;;14.40;99.90;;;;;;5105494;28;19923;-93
2022/08/08 02:01:20;;;;;;;;;;;14.30;99.90;;;;;;5105734;28;19967;-93
2022/08/08 02:03:52;;;;;;;;;;;14.30;99.90;;;;;;5105505;28;19938;-93
2022/08/08 02:06:25;;;;;;;;;;;14.20;99.90;;;;;;5105755;28;19912;-92
2022/08/08 02:09:02;;;;;;;;;;;14.20;99.90;;;;;;5105758;28;19920;-93
2022/08/08 02:11:31;;;;;;;;;;;14.10;99.90;;;;;;5105790;28;19912;-96
2022/08/08 02:14:01;;;;;;;;;;;14.10;99.90;;;;;;5106140;28;19931;-96
2022/08/08 02:16:29;;;;;;;;;;;14.00;99.90;;;;;;5106297;28;19916;-96
2022/08/08 02:19:03;;;;;;;;;;;14.10;99.90;;;;;;5106383;28;19931;-96
2022/08/08 02:24:23;;;;;;;;;;;14.00;99.90;;;;;;5106540;28;20004;-96
2022/08/08 02:26:53;;;;;;;;;;;14.00;99.90;;;;;;5106265;28;19954;-96
2022/08/08 02:29:27;;;;;;;;;;;13.90;99.90;;;;;;5106309;28;19909;-96
2022/08/08 02:32:05;;;;;;;;;;;13.90;99.90;;;;;;5106196;28;19913;-96
2022/08/08 02:34:53;;;;;;;;;;;14.60;99.90;;;;;;5106047;28;19912;-96
2022/08/08 02:37:24;;;;;;;;;;;13.60;99.90;;;;;;5089032;28;19908;-96
2022/08/08 02:39:59;;;;;;;;;;;13.80;99.90;;;;;;5106129;28;19955;-96
2022/08/08 02:42:56;;;;;;;;;;;13.70;99.90;;;;;;5106157;28;19912;-96
2022/08/08 02:45:50;;;;;;;;;;;13.70;99.90;;;;;;5064567;28;19968;-96
2022/08/08 02:48:32;;;;;;;;;;;13.60;99.90;;;;;;5045885;28;19909;-96
2022/08/08 02:51:23;;;;;;;;;;;13.60;99.90;;;;;;5097216;28;19909;-96
2022/08/08 02:54:20;;;;;;;;;;;13.60;99.90;;;;;;5105600;28;19931;-96
2022/08/08 02:57:09;;;;;;;;;;;13.50;99.90;;;;;;5064668;28;19936;-96
2022/08/08 03:00:07;;;;;;;;;;;13.50;99.90;;;;;;5102043;28;19919;-96
2022/08/08 03:03:07;;;;;;;;;;;13.50;99.90;;;;;;5060733;28;19909;-96
2022/08/08 03:05:56;;;;;;;;;;;13.50;99.90;;;;;;5102573;28;19912;-96
2022/08/08 03:09:03;;;;;;;;;;;13.40;99.90;;;;;;5102553;28;19912;-96
2022/08/08 03:11:49;;;;;;;;;;;13.40;99.90;;;;;;5102358;28;19912;-96
2022/08/08 03:14:31;;;;;;;;;;;13.80;99.90;;;;;;5102102;28;19930;-96
2022/08/08 03:17:01;;;;;;;;;;;13.30;99.90;;;;;;5080060;28;19931;-96
2022/08/08 03:19:47;;;;;;;;;;;13.30;99.90;;;;;;5102364;28;19909;-96
2022/08/08 03:22:14;;;;;;;;;;;13.40;99.90;;;;;;5102033;28;19935;-96
2022/08/08 03:24:42;;;;;;;;;;;13.30;99.90;;;;;;5102011;28;19934;-96
2022/08/08 03:27:13;;;;;;;;;;;13.30;99.90;;;;;;5102028;28;19913;-96
2022/08/08 03:29:42;;;;;;;;;;;13.30;99.90;;;;;;5102192;28;19908;-96
2022/08/08 03:34:53;;;;;;;;;;;13.20;99.90;;;;;;5101856;28;19979;-96
2022/08/08 03:37:21;;;;;;;;;;;13.20;99.90;;;;;;5101814;28;19931;-96
2022/08/08 03:39:49;;;;;;;;;;;13.10;99.90;;;;;;5101815;28;19908;-96
2022/08/08 03:42:16;;;;;;;;;;;13.10;99.90;;;;;;5101619;28;19908;-96
2022/08/08 03:44:44;;;;;;;;;;;13.10;99.90;;;;;;5101614;28;19935;-96
2022/08/08 03:47:11;;;;;;;;;;;13.00;99.90;;;;;;5101147;28;19908;-96
2022/08/08 03:49:38;;;;;;;;;;;13.10;99.90;;;;;;5101445;28;19938;-96
2022/08/08 03:52:05;;;;;;;;;;;13.00;99.90;;;;;;5101460;28;19913;-95
2022/08/08 03:54:32;;;;;;;;;;;13.00;99.90;;;;;;5101055;28;19935;-96
2022/08/08 03:57:00;;;;;;;;;;;13.00;99.90;;;;;;5101123;28;19909;-96
2022/08/08 03:59:29;;;;;;;;;;;12.90;99.90;;;;;;5101200;28;20096;-96
2022/08/08 04:01:56;;;;;;;;;;;12.90;99.90;;;;;;5101132;28;19913;-96
2022/08/08 04:04:22;;;;;;;;;;;12.90;99.90;;;;;;5101076;28;19920;-96
2022/08/08 04:06:55;;;;;;;;;;;12.90;99.90;;;;;;5100944;28;19919;-96
2022/08/08 04:09:22;;;;;;;;;;;12.80;99.90;;;;;;5101172;28;19913;-96
2022/08/08 04:11:49;;;;;;;;;;;11.80;99.90;;;;;;5101281;28;19915;-96
2022/08/08 04:14:17;;;;;;;;;;;12.80;99.90;;;;;;5100491;28;19912;-96
2022/08/08 04:16:44;;;;;;;;;;;12.80;99.90;;;;;;5101094;28;19912;-96
2022/08/08 04:19:12;;;;;;;;;;;12.80;99.90;;;;;;5100967;28;19908;-96
2022/08/08 04:21:39;;;;;;;;;;;12.70;99.90;;;;;;5100855;28;19938;-96
2022/08/08 04:24:06;;;;;;;;;;;12.70;99.90;;;;;;5100839;28;20170;-96
2022/08/08 04:26:33;;;;;;;;;;;12.80;99.90;;;;;;5100785;28;19924;-96
2022/08/08 04:29:00;;;;;;;;;;;12.80;99.90;;;;;;5100701;28;19909;-96
2022/08/08 04:31:28;;;;;;;;;;;12.80;99.90;;;;;;5100538;28;19921;-95
2022/08/08 04:33:55;;;;;;;;;;;12.80;99.90;;;;;;5100452;28;19908;-96
2022/08/08 04:36:22;;;;;;;;;;;12.80;99.90;;;;;;5100531;28;19931;-96
2022/08/08 04:38:49;;;;;;;;;;;12.80;99.90;;;;;;5100474;28;19913;-96
2022/08/08 04:41:15;;;;;;;;;;;12.80;99.90;;;;;;5100165;28;19908;-96
2022/08/08 04:43:42;;;;;;;;;;;12.10;99.90;;;;;;5100019;28;19931;-96
2022/08/08 04:46:09;;;;;;;;;;;12.50;99.90;;;;;;5100139;28;19924;-96
2022/08/08 04:48:37;;;;;;;;;;;12.80;99.90;;;;;;5099924;28;19908;-96
2022/08/08 04:51:04;;;;;;;;;;;12.90;99.90;;;;;;5099824;28;19913;-96
2022/08/08 04:53:31;;;;;;;;;;;12.90;99.90;;;;;;5099308;28;19909;-96
2022/08/08 04:55:58;;;;;;;;;;;13.00;99.90;;;;;;5099693;28;19913;-96
2022/08/08 04:58:25;;;;;;;;;;;13.00;99.90;;;;;;5100075;28;19908;-96
2022/08/08 05:00:52;;;;;;;;;;;13.00;99.90;;;;;;5100077;28;19909;-96
2022/08/08 05:03:19;;;;;;;;;;;13.10;99.90;;;;;;5099929;28;19912;-96
2022/08/08 05:05:48;;;;;;;;;;;13.10;99.90;;;;;;5099956;28;19912;-96
2022/08/08 05:08:14;;;;;;;;;;;13.10;99.90;;;;;;5100079;28;19938;-96
2022/08/08 05:10:41;;;;;;;;;;;13.20;99.90;;;;;;5100014;28;19912;-96
2022/08/08 05:13:08;;;;;;;;;;;13.20;99.90;;;;;;5099740;28;19915;-96
2022/08/08 05:15:35;;;;;;;;;;;13.30;99.90;;;;;;5099853;28;19912;-96
2022/08/08 05:18:02;;;;;;;;;;;13.30;99.90;;;;;;5099916;28;19916;-96
2022/08/08 05:20:31;;;;;;;;;;;12.90;99.90;;;;;;5099761;28;19920;-96
2022/08/08 05:23:00;;;;;;;;;;;13.50;99.90;;;;;;5099715;28;19912;-96
2022/08/08 05:25:28;;;;;;;;;;;13.60;99.90;;;;;;5099349;28;19909;-96
2022/08/08 05:27:55;;;;;;;;;;;13.70;99.90;;;;;;5100073;28;19915;-96
2022/08/08 05:30:21;;;;;;;;;;;13.80;99.90;;;;;;5100101;28;19912;-96
2022/08/08 05:32:48;;;;;;;;;;;13.70;99.90;;;;;;5099866;28;19909;-96
2022/08/08 05:35:17;;;;;;;;;;;14.00;99.90;;;;;;5100071;28;19913;-96
2022/08/08 05:37:48;;;;;;;;;;;14.10;99.90;;;;;;5100206;28;19947;-96
2022/08/08 05:40:18;;;;;;;;;;;14.20;99.90;;;;;;5100211;28;19908;-96
2022/08/08 05:42:46;;;;;;;;;;;14.40;99.90;;;;;;5099977;28;19944;-96
2022/08/08 05:45:15;;;;;;;;;;;14.50;99.90;;;;;;5099930;28;19980;-96
2022/08/08 05:47:52;;;;;;;;;;;14.60;99.90;;;;;;5099733;28;19940;-96
2022/08/08 05:50:19;;;;;;;;;;;14.70;99.90;;;;;;5099977;28;19916;-96
2022/08/08 05:52:47;;;;;;;;;;;14.90;99.90;;;;;;5099676;28;19918;-96
2022/08/08 05:55:16;;;;;;;;;;;15.00;99.90;;;;;;5099661;28;19930;-96
2022/08/08 05:57:47;;;;;;;;;;;15.10;99.90;;;;;;5099531;28;19916;-96
2022/08/08 06:00:14;;;;;;;;;;;15.10;99.90;;;;;;5099612;28;19920;-96
2022/08/08 06:05:31;;;;;;;;;;;14.80;99.90;;;;;;5099928;28;19926;-96
2022/08/08 06:07:59;;;;;;;;;;;15.30;99.90;;;;;;5099643;28;19932;-96
2022/08/08 06:10:30;;;;;;;;;;;15.30;99.90;;;;;;5099632;28;19912;-96
2022/08/08 06:12:59;;;;;;;;;;;15.50;99.90;;;;;;5099383;28;19908;-96
2022/08/08 06:15:27;;;;;;;;;;;15.70;99.90;;;;;;5099439;28;19935;-96
2022/08/08 06:17:57;;;;;;;;;;;15.60;99.90;;;;;;5099624;28;19946;-96
2022/08/08 06:20:24;;;;;;;;;;;15.70;99.90;;;;;;5099701;28;19947;-96
2022/08/08 06:22:51;;;;;;;;;;;15.80;99.90;;;;;;5099310;28;19908;-96
2022/08/08 06:25:18;;;;;;;;;;;15.90;99.90;;;;;;5099545;28;19932;-96
2022/08/08 06:27:46;;;;;;;;;;;16.00;99.90;;;;;;5099744;28;19912;-96
2022/08/08 06:30:16;;;;;;;;;;;16.10;99.90;;;;;;5099810;28;19915;-96
2022/08/08 06:32:45;;;;;;;;;;;16.20;99.90;;;;;;5099567;28;19912;-96
2022/08/08 06:35:15;;;;;;;;;;;16.50;99.90;;;;;;5099202;28;19908;-96
2022/08/08 06:37:47;;;;;;;;;;;16.40;99.90;;;;;;5103098;28;19912;-96
2022/08/08 06:40:21;;;;;;;;;;;16.50;99.90;;;;;;5103627;28;19915;-96
2022/08/08 06:42:55;;;;;;;;;;;16.60;99.90;;;;;;5103199;28;19923;-96
2022/08/08 06:45:41;;;;;;;;;;;16.70;99.90;;;;;;5103428;28;19938;-96
2022/08/08 06:48:09;;;;;;;;;;;16.80;99.90;;;;;;5102384;28;19915;-96
2022/08/08 06:50:38;;;;;;;;;;;17.00;99.90;;;;;;5103028;28;19908;-96
2022/08/08 06:53:08;;;;;;;;;;;17.20;99.90;;;;;;5102915;28;19913;-96
2022/08/08 07:01:30;;;;;;;;;;;17.70;99.90;;;;;;5108308;28;20041;-96
2022/08/08 07:04:03;;;;;;;;;;;17.80;99.90;;;;;;5102640;28;19930;-96
2022/08/08 07:06:33;;;;;;;;;;;18.00;99.90;;;;;;5102328;28;19938;-96
2022/08/08 07:09:03;;;;;;;;;;;18.20;99.90;;;;;;5102364;28;19920;-96
2022/08/08 07:11:31;;;;;;;;;;;18.30;99.90;;;;;;5102386;28;19930;-96
2022/08/08 07:13:59;;;;;;;;;;;18.40;99.90;;;;;;5102328;28;19912;-96
2022/08/08 07:16:31;;;;;;;;;;;18.50;99.90;;;;;;5102266;28;19908;-96
2022/08/08 07:19:07;;;;;;;;;;;18.60;99.90;;;;;;5102497;28;19908;-96
2022/08/08 07:21:53;;;;;;;;;;;18.60;99.90;;;;;;5102374;28;19964;-96
2022/08/08 07:24:29;;;;;;;;;;;18.70;99.90;;;;;;5102472;28;19939;-96
2022/08/08 07:26:59;;;;;;;;;;;18.80;99.90;;;;;;5102422;28;19920;-96
2022/08/08 07:29:26;;;;;;;;;;;18.90;99.90;;;;;;5102397;28;19917;-96
2022/08/08 07:32:02;;;;;;;;;;;19.10;99.90;;;;;;5102156;28;19920;-96
2022/08/08 07:34:31;;;;;;;;;;;19.10;99.90;;;;;;5101972;28;19916;-96
2022/08/08 07:37:02;;;;;;;;;;;19.20;99.90;;;;;;5102106;28;19916;-96
2022/08/08 07:39:30;;;;;;;;;;;19.30;99.90;;;;;;5102236;28;19909;-96
2022/08/08 07:41:57;;;;;;;;;;;19.30;99.90;;;;;;5102287;28;19908;-96
2022/08/08 07:44:31;;;;;;;;;;;19.60;99.90;;;;;;5101667;28;19940;-96
2022/08/08 07:46:58;;;;;;;;;;;19.80;99.90;;;;;;5101477;28;19916;-95
2022/08/08 07:49:25;;;;;;;;;;;19.90;99.90;;;;;;5101245;28;19912;-96
2022/08/08 07:51:57;;;;;;;;;;;20.10;99.90;;;;;;5101798;28;19922;-96
2022/08/08 07:54:34;;;;;;;;;;;20.10;99.90;;;;;;5101728;28;19916;-96
2022/08/08 07:57:08;;;;;;;;;;;20.20;99.90;;;;;;5101519;28;19931;-96
2022/08/08 07:59:41;;;;;;;;;;;20.20;99.90;;;;;;5101395;28;19927;-96
2022/08/08 08:02:15;;;;;;;;;;;20.30;99.90;;;;;;5101343;28;19930;-96
2022/08/08 08:04:47;;;;;;;;;;;20.40;99.90;;;;;;5101179;28;19908;-96
2022/08/08 08:07:20;;;;;;;;;;;20.60;99.90;;;;;;5101469;28;19979;-96
2022/08/08 08:09:47;;;;;;;;;;;20.70;99.90;;;;;;5101339;28;19913;-96
2022/08/08 08:23:58;;;;;;;;;;;21.30;99.90;;;;;;5061536;28;19966;-67
2022/08/08 08:26:25;;;;;;;;;;;21.40;99.90;;;;;;5064396;28;20026;-67
2022/08/08 08:28:51;;;;;;;;;;;21.40;99.90;;;;;;5064513;28;19920;-67
2022/08/08 08:31:18;;;;;;;;;;;21.40;99.90;;;;;;5064470;28;19983;-67
2022/08/08 08:33:45;;;;;;;;;;;21.60;99.90;;;;;;5064191;28;19920;-67
2022/08/08 08:36:11;;;;;;;;;;;21.70;99.90;;;;;;5064398;28;19938;-67
2022/08/08 08:38:38;;;;;;;;;;;21.80;99.90;;;;;;5064307;28;19955;-67
2022/08/08 08:41:07;;;;;;;;;;;21.90;98.90;;;;;;5064175;28;19959;-68
2022/08/08 08:43:34;;;;;;;;;;;22.10;99.00;;;;;;5063818;28;20267;-67
2022/08/08 08:46:01;;;;;;;;;;;22.20;98.30;;;;;;5064070;28;19920;-67
2022/08/08 08:48:28;;;;;;;;;;;22.30;98.60;;;;;;5063099;28;19921;-67
2022/08/08 08:50:55;;;;;;;;;;;22.30;97.50;;;;;;5063967;28;19959;-67
2022/08/08 08:53:22;;;;;;;;;;;22.40;96.90;;;;;;5063591;28;20267;-67
2022/08/08 08:55:49;;;;;;;;;;;22.50;97.00;;;;;;5063876;28;19921;-68
2022/08/08 08:58:25;;;;;;;;;;;22.60;96.80;;;;;;5063911;28;19952;-67
2022/08/08 09:00:52;;;;;;;;;;;22.70;96.90;;;;;;5063119;28;19924;-67
2022/08/08 09:03:20;;;;;;;;;;;22.80;96.30;;;;;;5063503;28;20204;-67
2022/08/08 09:05:47;;;;;;;;;;;22.80;96.50;;;;;;5063982;28;19959;-67
2022/08/08 09:08:15;;;;;;;;;;;22.80;94.00;;;;;;5063811;28;19948;-67
2022/08/08 09:10:43;;;;;;;;;;;23.00;94.10;;;;;;5063839;28;19984;-67
2022/08/08 09:13:10;;;;;;;;;;;23.00;93.40;;;;;;5063270;28;20240;-67
2022/08/08 09:15:38;;;;;;;;;;;23.10;93.80;;;;;;5063540;28;19975;-67
2022/08/08 09:18:05;;;;;;;;;;;23.20;94.10;;;;;;5063429;28;19959;-67
2022/08/08 09:20:33;;;;;;;;;;;23.20;94.30;;;;;;5063744;28;19952;-67
2022/08/08 09:23:01;;;;;;;;;;;23.30;94.20;;;;;;5063242;28;19963;-68
2022/08/08 09:25:27;;;;;;;;;;;23.40;94.60;;;;;;5063497;28;20124;-67
2022/08/08 09:27:54;;;;;;;;;;;23.50;92.70;;;;;;5063276;28;19971;-67
2022/08/08 09:30:21;;;;;;;;;;;23.50;91.70;;;;;;5063246;28;19948;-67
2022/08/08 09:32:51;;;;;;;;;;;23.50;91.60;;;;;;5063242;28;19928;-68
2022/08/08 09:35:19;;;;;;;;;;;23.50;91.00;;;;;;5063202;28;19921;-68
2022/08/08 09:37:46;;;;;;;;;;;23.60;91.40;;;;;;5063256;28;19943;-67
2022/08/08 09:40:14;;;;;;;;;;;23.70;91.70;;;;;;5063245;28;19963;-67
2022/08/08 09:42:42;;;;;;;;;;;23.80;90.70;;;;;;5063497;28;19920;-67
2022/08/08 09:45:10;;;;;;;;;;;23.90;90.70;;;;;;5063084;28;20163;-67
2022/08/08 09:47:37;;;;;;;;;;;24.00;90.20;;;;;;5063142;28;19992;-67
2022/08/08 09:50:07;;;;;;;;;;;24.10;91.20;;;;;;5063123;28;19954;-67
2022/08/08 09:52:35;;;;;;;;;;;24.20;91.00;;;;;;5063066;28;19927;-68
2022/08/08 09:55:02;;;;;;;;;;;24.30;90.30;;;;;;5062777;28;20234;-68
2022/08/08 09:57:31;;;;;;;;;;;24.30;90.00;;;;;;5062915;28;19960;-67
2022/08/08 09:59:59;;;;;;;;;;;24.40;85.80;;;;;;5063251;28;19928;-67
2022/08/08 10:02:32;;;;;;;;;;;24.40;86.60;;;;;;5063138;28;19928;-67
2022/08/08 10:05:03;;;;;;;;;;;24.50;84.50;;;;;;5063162;28;19956;-67
2022/08/08 10:07:31;;;;;;;;;;;24.50;85.40;;;;;;5062862;28;19924;-67
2022/08/08 10:09:58;;;;;;;;;;;24.60;83.90;;;;;;5062899;28;20259;-67
2022/08/08 10:12:31;;;;;;;;;;;24.70;85.90;;;;;;5066088;28;19920;-68
2022/08/08 10:14:59;;;;;;;;;;;24.80;85.50;;;;;;5067057;28;19927;-68
2022/08/08 10:17:26;;;;;;;;;;;24.90;85.20;;;;;;5066922;28;19987;-68
2022/08/08 10:19:56;;;;;;;;;;;24.90;84.90;;;;;;5066903;28;20180;-68
2022/08/08 10:22:23;;;;;;;;;;;25.00;85.50;;;;;;5066560;28;19921;-68
2022/08/08 10:24:53;;;;;;;;;;;25.00;82.70;;;;;;5066768;28;19983;-67
2022/08/08 10:27:20;;;;;;;;;;;25.10;82.40;;;;;;5066875;28;19927;-67
2022/08/08 10:29:50;;;;;;;;;;;25.20;81.60;;;;;;5066706;28;19920;-67
2022/08/08 10:32:35;;;;;;;;;;;25.20;81.40;;;;;;5066809;28;19921;-67
2022/08/08 10:35:03;;;;;;;;;;;25.20;81.40;;;;;;5066180;28;19956;-68
2022/08/08 10:37:30;;;;;;;;;;;25.30;81.50;;;;;;5066317;28;19964;-67
2022/08/08 10:39:59;;;;;;;;;;;25.40;81.30;;;;;;5066547;28;20179;-68
2022/08/08 10:42:31;;;;;;;;;;;25.50;81.20;;;;;;5066499;28;19960;-66
2022/08/08 10:45:02;;;;;;;;;;;25.40;81.70;;;;;;5066333;28;19920;-67
2022/08/08 10:47:28;;;;;;;;;;;25.40;81.20;;;;;;5066285;28;19976;-67
2022/08/08 10:49:56;;;;;;;;;;;25.40;81.90;;;;;;5066355;28;20164;-67
2022/08/08 10:52:24;;;;;;;;;;;25.50;81.00;;;;;;5066254;28;20172;-67
2022/08/08 10:54:54;;;;;;;;;;;25.60;80.10;;;;;;5065533;28;19962;-67
2022/08/08 10:57:22;;;;;;;;;;;25.70;79.60;;;;;;5066154;28;19989;-67
2022/08/08 10:59:53;;;;;;;;;;;25.70;80.80;;;;;;5065991;28;19959;-67
2022/08/08 11:02:23;;;;;;;;;;;25.90;81.00;;;;;;5066126;28;19931;-67
2022/08/08 11:04:50;;;;;;;;;;;26.10;79.60;;;;;;5065726;28;19928;-67
2022/08/08 11:07:24;;;;;;;;;;;26.10;79.60;;;;;;5065999;28;19922;-67
2022/08/08 11:09:51;;;;;;;;;;;26.20;77.60;;;;;;5066081;28;19963;-67
2022/08/08 11:12:17;;;;;;;;;;;26.40;78.80;;;;;;5066410;28;19921;-67
2022/08/08 11:14:50;;;;;;;;;;;26.50;79.10;;;;;;5065458;28;19964;-67
2022/08/08 11:17:18;;;;;;;;;;;26.70;78.00;;;;;;5066003;28;19928;-67
2022/08/08 11:19:45;;;;;;;;;;;26.70;77.00;;;;;;5066150;28;19928;-67
2022/08/08 11:22:13;;;;;;;;;;;26.70;76.50;;;;;;5065161;28;19927;-67
2022/08/08 11:24:40;;;;;;;;;;;26.50;77.00;;;;;;5064923;28;20151;-67
2022/08/08 11:27:07;;;;;;;;;;;26.50;76.00;;;;;;5065504;28;19984;-67
2022/08/08 11:29:35;;;;;;;;;;;26.60;76.70;;;;;;5065947;28;19988;-67
2022/08/08 11:32:05;;;;;;;;;;;26.70;77.80;;;;;;5065542;28;19967;-67
2022/08/08 11:34:32;;;;;;;;;;;27.00;76.60;;;;;;5065139;28;19983;-68
2022/08/08 11:37:00;;;;;;;;;;;27.20;77.20;;;;;;5065319;28;19925;-67
2022/08/08 11:39:28;;;;;;;;;;;27.40;75.20;;;;;;5065354;28;19948;-67
2022/08/08 11:41:55;;;;;;;;;;;27.50;75.20;;;;;;5065319;28;19936;-67
2022/08/08 11:44:22;;;;;;;;;;;27.60;73.90;;;;;;5065345;28;19952;-67
2022/08/08 11:46:56;;;;;;;;;;;27.80;72.30;;;;;;5065327;28;19971;-67
2022/08/08 11:49:24;;;;;;;;;;;27.80;72.50;;;;;;5065297;28;20227;-67
2022/08/08 11:51:52;;;;;;;;;;;27.80;75.60;;;;;;5065163;28;19967;-67
2022/08/08 11:54:29;;;;;;;;;;;28.00;73.60;;;;;;5065102;28;19952;-67
2022/08/08 11:56:56;;;;;;;;;;;28.00;72.80;;;;;;5064940;28;19928;-68
2022/08/08 11:59:31;;;;;;;;;;;28.00;72.80;;;;;;5065204;28;20001;-67
2022/08/08 12:02:03;;;;;;;;;;;28.00;73.80;;;;;;5065076;28;19952;-67
2022/08/08 12:04:31;;;;;;;;;;;28.10;73.50;;;;;;5064574;28;19959;-67
2022/08/08 12:07:02;;;;;;;;;;;28.30;70.50;;;;;;5064818;28;19987;-67
2022/08/08 12:09:29;;;;;;;;;;;28.50;70.60;;;;;;5064971;28;19988;-67
2022/08/08 12:11:55;;;;;;;;;;;28.50;68.60;;;;;;5064717;28;19945;-67
2022/08/08 12:14:23;;;;;;;;;;;28.60;70.00;;;;;;5064540;28;19992;-67
2022/08/08 12:16:51;;;;;;;;;;;28.70;70.30;;;;;;5064558;28;19928;-67
2022/08/08 12:19:19;;;;;;;;;;;28.90;68.20;;;;;;5064564;28;19920;-67
2022/08/08 12:21:47;;;;;;;;;;;28.90;68.80;;;;;;5064684;28;19925;-67
2022/08/08 12:24:15;;;;;;;;;;;29.10;67.40;;;;;;5064501;28;19952;-67
2022/08/08 12:26:42;;;;;;;;;;;29.10;69.10;;;;;;5064317;28;20105;-67
2022/08/08 12:29:19;;;;;;;;;;;29.20;65.40;;;;;;5064493;28;19920;-67
2022/08/08 12:31:46;;;;;;;;;;;29.20;66.00;;;;;;5064376;28;19967;-67
2022/08/08 12:34:13;;;;;;;;;;;29.30;66.30;;;;;;5063813;28;19963;-67
2022/08/08 12:36:40;;;;;;;;;;;29.30;66.30;;;;;;5064175;28;20123;-67
2022/08/08 12:39:08;;;;;;;;;;;29.20;67.40;;;;;;5064424;28;19983;-67
2022/08/08 12:41:35;;;;;;;;;;;29.40;66.30;;;;;;5064267;28;19927;-67
2022/08/08 12:44:06;;;;;;;;;;;29.70;66.00;;;;;;5063829;28;19921;-67
2022/08/08 12:46:32;;;;;;;;;;;29.90;65.50;;;;;;5064268;28;19921;-67
2022/08/08 12:49:00;;;;;;;;;;;30.10;64.40;;;;;;5064200;28;19921;-67
2022/08/08 12:51:27;;;;;;;;;;;30.30;63.50;;;;;;5064029;28;19960;-67
2022/08/08 12:53:57;;;;;;;;;;;30.30;63.80;;;;;;5063777;28;19989;-67
2022/08/08 12:56:33;;;;;;;;;;;30.30;64.70;;;;;;5063762;28;19921;-67
2022/08/08 12:58:59;;;;;;;;;;;30.20;63.90;;;;;;5064108;28;19932;-67
2022/08/08 13:01:33;;;;;;;;;;;30.20;65.20;;;;;;5064005;28;20176;-67
2022/08/08 13:04:00;;;;;;;;;;;30.10;63.90;;;;;;5063678;28;19924;-67
2022/08/08 13:06:27;;;;;;;;;;;30.10;62.70;;;;;;5063763;28;19920;-67
2022/08/08 13:08:54;;;;;;;;;;;30.20;63.70;;;;;;5063729;28;19920;-67
2022/08/08 13:11:23;;;;;;;;;;;30.30;63.20;;;;;;5063532;28;19956;-67
2022/08/08 13:13:52;;;;;;;;;;;30.30;63.50;;;;;;5063636;28;19963;-68
2022/08/08 13:16:19;;;;;;;;;;;30.40;62.70;;;;;;5063635;28;19921;-67
2022/08/08 13:18:46;;;;;;;;;;;30.50;62.10;;;;;;5063521;28;20144;-67
2022/08/08 13:21:13;;;;;;;;;;;30.50;61.80;;;;;;5063498;28;19967;-67
2022/08/08 13:23:40;;;;;;;;;;;30.20;62.80;;;;;;5063089;28;20200;-67
2022/08/08 13:26:07;;;;;;;;;;;30.20;62.30;;;;;;5063715;28;19921;-68
2022/08/08 13:28:34;;;;;;;;;;;30.20;63.00;;;;;;5063597;28;19928;-67
2022/08/08 13:31:03;;;;;;;;;;;29.90;62.80;;;;;;5063269;28;19996;-67
2022/08/08 13:33:29;;;;;;;;;;;30.10;63.00;;;;;;5063032;28;19960;-67
2022/08/08 13:35:57;;;;;;;;;;;29.80;62.50;;;;;;5063358;28;20231;-68
2022/08/08 13:38:24;;;;;;;;;;;30.00;62.60;;;;;;5063059;28;19927;-67
2022/08/08 13:40:51;;;;;;;;;;;30.10;61.60;;;;;;5063197;28;20309;-67
2022/08/08 13:43:18;;;;;;;;;;;29.90;61.60;;;;;;5062940;28;19956;-67
2022/08/08 13:45:45;;;;;;;;;;;29.90;62.70;;;;;;5062665;28;19920;-67
2022/08/08 13:48:13;;;;;;;;;;;29.90;61.60;;;;;;5063178;28;19963;-67
2022/08/08 13:50:44;;;;;;;;;;;30.20;62.50;;;;;;5063036;28;20258;-67
2022/08/08 13:53:11;;;;;;;;;;;30.40;62.00;;;;;;5063078;28;19960;-67
2022/08/08 13:55:38;;;;;;;;;;;30.60;61.70;;;;;;5062952;28;19983;-67
2022/08/08 13:58:04;;;;;;;;;;;30.60;61.60;;;;;;5062924;28;19921;-68
2022/08/08 14:00:38;;;;;;;;;;;30.60;61.70;;;;;;5063169;28;19927;-67
2022/08/08 14:03:05;;;;;;;;;;;30.60;61.10;;;;;;5062841;28;19997;-67
2022/08/08 14:05:33;;;;;;;;;;;30.80;61.40;;;;;;5062994;28;20085;-67
2022/08/08 14:08:00;;;;;;;;;;;30.70;59.90;;;;;;5062900;28;20187;-67
2022/08/08 14:10:27;;;;;;;;;;;30.60;61.00;;;;;;5063146;28;19956;-67
2022/08/08 14:12:53;;;;;;;;;;;30.80;60.90;;;;;;5062777;28;20264;-67
2022/08/08 14:15:24;;;;;;;;;;;31.00;60.60;;;;;;5062879;28;19956;-68
2022/08/08 14:17:54;;;;;;;;;;;31.30;59.50;;;;;;5062701;28;19968;-67
2022/08/08 14:20:29;;;;;;;;;;;31.40;59.10;;;;;;5063048;28;19959;-68
2022/08/08 14:23:03;;;;;;;;;;;31.40;58.80;;;;;;5062614;28;20121;-68
2022/08/08 14:25:29;;;;;;;;;;;31.30;59.60;;;;;;5062937;28;20176;-68
2022/08/08 14:27:56;;;;;;;;;;;31.50;59.50;;;;;;5062748;28;20128;-67
2022/08/08 14:30:32;;;;;;;;;;;31.50;58.80;;;;;;5062682;28;20116;-67
2022/08/08 14:32:59;;;;;;;;;;;31.40;58.70;;;;;;5062686;28;19963;-68
2022/08/08 14:35:26;;;;;;;;;;;31.30;58.60;;;;;;5077705;22;19928;-72
2022/08/08 14:37:52;;;;;;;;;;;31.40;58.90;;;;;;5067625;28;19920;-72
2022/08/08 14:40:21;;;;;;;;;;;31.40;59.80;;;;;;5063047;28;19921;-72
2022/08/08 14:42:50;;;;;;;;;;;31.50;59.50;;;;;;5062426;28;19921;-73
2022/08/08 14:45:16;;;;;;;;;;;31.60;59.50;;;;;;5062907;28;19988;-74
2022/08/08 14:47:43;;;;;;;;;;;31.60;58.80;;;;;;5082891;28;19920;-72
2022/08/08 14:50:11;;;;;;;;;;;31.70;58.50;;;;;;5082886;28;19920;-72
2022/08/08 14:52:42;;;;;;;;;;;31.80;59.40;;;;;;5081462;28;19920;-72
2022/08/08 14:55:09;;;;;;;;;;;31.90;58.20;;;;;;5083084;28;19966;-72
2022/08/08 14:57:37;;;;;;;;;;;32.10;58.70;;;;;;5083844;28;20000;-72
2022/08/08 15:00:05;;;;;;;;;;;31.80;58.50;;;;;;5086157;28;20258;-71
2022/08/08 15:02:32;;;;;;;;;;;31.80;58.20;;;;;;5086132;28;19942;-71